Time;durP1;ratioP1;P1;durP2;ratioP2;P2;SDS_P1;SDS_P2;PMS_P1;PMS_P2;Temp;Humidity;BMP_temperature;BMP_pressure;BME280_temperature;BME280_humidity;BME280_pressure;Samples;Min_cycle;Max_cycle;Signal;HPM_P1;HPM_P2
2023/02/28 00:00:22;;;;;;;14.27;9.32;;;1.20;75.60;;;;;;4985325;28;20038;-76
2023/02/28 00:02:48;;;;;;;14.60;9.05;;;1.20;75.70;;;;;;4979531;28;20046;-74
2023/02/28 00:05:19;;;;;;;13.98;9.60;;;1.20;75.80;;;;;;4974808;28;20031;-77
2023/02/28 00:07:46;;;;;;;13.13;9.02;;;1.20;75.80;;;;;;4975591;28;20085;-76
2023/02/28 00:10:14;;;;;;;14.00;8.70;;;1.20;75.80;;;;;;4974516;28;20105;-76
2023/02/28 00:12:40;;;;;;;17.20;9.43;;;1.10;75.90;;;;;;4981221;28;20115;-76
2023/02/28 00:15:09;;;;;;;15.98;9.80;;;1.10;76.20;;;;;;4982803;28;20026;-75
2023/02/28 00:17:35;;;;;;;12.80;9.25;;;1.10;76.40;;;;;;4976035;28;20141;-77
2023/02/28 00:20:11;;;;;;;13.40;9.45;;;1.00;76.50;;;;;;4981198;28;20114;-76
2023/02/28 00:22:39;;;;;;;14.40;8.88;;;1.10;76.60;;;;;;4977474;28;20419;-76
2023/02/28 00:25:06;;;;;;;13.05;9.63;;;1.10;76.70;;;;;;4973336;28;20451;-75
2023/02/28 00:27:33;;;;;;;15.82;10.38;;;1.00;76.80;;;;;;4980275;28;20085;-76
2023/02/28 00:29:59;;;;;;;13.25;9.23;;;0.90;76.90;;;;;;4981028;28;20110;-75
2023/02/28 00:32:24;;;;;;;14.48;9.75;;;0.90;77.00;;;;;;4981085;28;20530;-76
2023/02/28 00:34:50;;;;;;;12.23;8.77;;;1.00;77.10;;;;;;4984864;28;20573;-75
2023/02/28 00:37:16;;;;;;;14.45;10.35;;;0.90;77.10;;;;;;4986004;28;20487;-75
2023/02/28 00:39:41;;;;;;;14.95;10.00;;;0.90;77.10;;;;;;4989083;28;20035;-76
2023/02/28 00:42:07;;;;;;;14.98;9.75;;;0.90;77.30;;;;;;4985457;28;20050;-75
2023/02/28 00:44:33;;;;;;;18.25;10.55;;;0.90;77.30;;;;;;4980182;28;20049;-76
2023/02/28 00:47:00;;;;;;;14.73;9.90;;;0.90;77.40;;;;;;4979253;28;20514;-76
2023/02/28 00:49:26;;;;;;;16.10;9.90;;;0.80;77.50;;;;;;4980914;28;20058;-75
2023/02/28 00:51:53;;;;;;;15.15;9.90;;;0.80;77.60;;;;;;4979907;28;20044;-76
2023/02/28 00:54:19;;;;;;;14.13;10.52;;;0.80;77.70;;;;;;4983836;28;20038;-75
2023/02/28 00:56:45;;;;;;;14.23;9.10;;;0.80;77.70;;;;;;4979749;28;20133;-76
2023/02/28 00:59:12;;;;;;;15.73;9.95;;;0.80;77.70;;;;;;4981403;28;20034;-75
2023/02/28 01:01:38;;;;;;;14.43;10.18;;;0.80;77.80;;;;;;4978210;28;20062;-76
2023/02/28 01:04:04;;;;;;;15.82;10.52;;;0.80;78.00;;;;;;4986174;28;20458;-76
2023/02/28 01:06:31;;;;;;;15.80;10.98;;;0.80;78.10;;;;;;4984456;28;20141;-75
2023/02/28 01:08:58;;;;;;;14.73;10.38;;;0.80;78.20;;;;;;4998877;28;20053;-76
2023/02/28 01:11:23;;;;;;;14.02;9.73;;;0.80;78.10;;;;;;5002515;28;20044;-76
2023/02/28 01:13:50;;;;;;;18.67;10.55;;;0.80;78.20;;;;;;5004891;28;20030;-76
2023/02/28 01:16:16;;;;;;;14.05;10.43;;;0.80;78.20;;;;;;4992097;28;20483;-76
2023/02/28 01:18:42;;;;;;;16.05;11.65;;;0.80;78.40;;;;;;4985512;28;20022;-76
2023/02/28 01:21:13;;;;;;;15.90;11.55;;;0.80;78.40;;;;;;4988863;28;20038;-76
2023/02/28 01:23:40;;;;;;;14.02;11.23;;;0.80;78.40;;;;;;5003355;28;20049;-76
2023/02/28 01:26:06;;;;;;;16.80;11.43;;;0.80;78.50;;;;;;4995968;28;20486;-77
2023/02/28 01:28:32;;;;;;;18.45;12.55;;;0.80;78.40;;;;;;4995304;28;20033;-76
2023/02/28 01:30:58;;;;;;;18.40;11.70;;;0.70;78.60;;;;;;4995527;28;20038;-76
2023/02/28 01:33:24;;;;;;;21.25;12.45;;;0.70;78.70;;;;;;4993864;28;20049;-75
2023/02/28 01:35:49;;;;;;;15.93;11.73;;;0.70;78.70;;;;;;4999187;28;20556;-75
2023/02/28 01:38:15;;;;;;;14.50;11.48;;;0.80;78.80;;;;;;4994775;28;20523;-76
2023/02/28 01:40:41;;;;;;;16.77;12.23;;;0.70;78.80;;;;;;4999761;28;20018;-77
2023/02/28 01:43:21;;;;;;;17.08;12.20;;;0.70;79.00;;;;;;5000890;28;20025;-76
2023/02/28 01:45:47;;;;;;;17.33;12.13;;;0.70;79.00;;;;;;5002277;28;20048;-77
2023/02/28 01:48:12;;;;;;;19.42;12.50;;;0.70;79.00;;;;;;5000627;28;20057;-76
2023/02/28 01:50:43;;;;;;;15.70;12.27;;;0.70;79.00;;;;;;4996322;28;20328;-75
2023/02/28 01:53:19;;;;;;;19.60;12.52;;;0.70;79.10;;;;;;5000094;28;20029;-75
2023/02/28 01:55:48;;;;;;;17.80;12.27;;;0.60;79.30;;;;;;4992454;28;20498;-76
2023/02/28 01:58:14;;;;;;;19.77;12.20;;;0.60;79.20;;;;;;5000019;28;20057;-75
2023/02/28 02:00:42;;;;;;;15.02;11.10;;;0.60;79.40;;;;;;5003126;28;20374;-75
2023/02/28 02:03:14;;;;;;;15.32;11.27;;;0.60;79.60;;;;;;5002075;28;20018;-75
2023/02/28 02:05:41;;;;;;;16.98;11.55;;;0.60;79.60;;;;;;4998307;28;20490;-77
2023/02/28 02:08:11;;;;;;;20.13;12.65;;;0.60;79.70;;;;;;4999242;28;20037;-76
2023/02/28 02:10:42;;;;;;;15.73;11.93;;;0.50;79.90;;;;;;4996623;28;20031;-76
2023/02/28 02:13:20;;;;;;;15.75;12.82;;;0.50;80.00;;;;;;4999301;28;20026;-75
2023/02/28 02:15:52;;;;;;;17.77;11.98;;;0.60;79.90;;;;;;4996401;28;20371;-76
2023/02/28 02:18:47;;;;;;;14.75;11.65;;;0.50;80.00;;;;;;5001192;28;20050;-76
2023/02/28 02:21:33;;;;;;;16.23;12.80;;;0.50;80.10;;;;;;4996725;28;20037;-75
2023/02/28 02:24:11;;;;;;;17.13;12.43;;;0.60;80.20;;;;;;5002831;28;20109;-76
2023/02/28 02:27:08;;;;;;;18.35;13.18;;;0.60;80.00;;;;;;5002111;28;20425;-77
2023/02/28 02:29:40;;;;;;;17.48;12.88;;;0.60;80.10;;;;;;5001010;28;20030;-76
2023/02/28 02:32:17;;;;;;;17.02;12.55;;;0.60;80.00;;;;;;4997772;28;20621;-74
2023/02/28 02:34:55;;;;;;;16.25;12.48;;;0.50;80.10;;;;;;4994796;28;20036;-75
2023/02/28 02:37:36;;;;;;;16.77;12.60;;;0.40;80.20;;;;;;5002797;28;20584;-75
2023/02/28 02:40:11;;;;;;;20.20;12.88;;;0.40;80.30;;;;;;5001562;28;20030;-75
2023/02/28 02:42:40;;;;;;;;;;;0.40;80.50;;;;;;4996625;28;20037;-75
2023/02/28 02:45:18;;;;;;;19.50;13.25;;;0.40;80.70;;;;;;5002242;28;20286;-75
2023/02/28 02:47:45;;;;;;;17.10;12.57;;;0.40;80.80;;;;;;4980606;28;20064;-76
2023/02/28 02:50:17;;;;;;;17.63;12.27;;;0.40;80.90;;;;;;4980420;28;20085;-75
2023/02/28 02:52:48;;;;;;;19.00;12.73;;;0.30;80.90;;;;;;4995242;28;20030;-75
2023/02/28 02:55:16;;;;;;;17.60;12.77;;;0.40;81.20;;;;;;4987651;28;20042;-75
2023/02/28 02:57:55;;;;;;;17.92;12.63;;;0.30;81.10;;;;;;4993368;28;20048;-76
2023/02/28 03:00:35;;;;;;;16.60;12.52;;;0.40;81.40;;;;;;4998441;28;20084;-74
2023/02/28 03:03:01;;;;;;;16.50;12.77;;;0.40;81.50;;;;;;4997221;28;20041;-76
2023/02/28 03:05:39;;;;;;;16.98;12.85;;;0.40;81.40;;;;;;4997695;28;20064;-76
2023/02/28 03:08:08;;;;;;;17.70;12.75;;;0.40;81.40;;;;;;5008934;28;20041;-75
2023/02/28 03:10:41;;;;;;;18.10;12.88;;;0.40;81.60;;;;;;5000890;28;20034;-75
2023/02/28 03:13:38;;;;;;;18.90;13.63;;;0.40;81.60;;;;;;4997521;28;20084;-74
2023/02/28 03:16:16;;;;;;;17.95;12.75;;;0.40;81.80;;;;;;4993782;28;20038;-75
2023/02/28 03:19:10;;;;;;;22.42;13.25;;;0.30;82.00;;;;;;5001443;28;20085;-75
2023/02/28 03:21:38;;;;;;;20.80;13.02;;;0.30;82.40;;;;;;4997512;28;20030;-75
2023/02/28 03:24:14;;;;;;;23.90;14.57;;;0.40;82.40;;;;;;5010904;28;20570;-75
2023/02/28 03:26:44;;;;;;;21.60;14.32;;;0.40;82.40;;;;;;5000668;28;20579;-76
2023/02/28 03:29:23;;;;;;;22.00;14.02;;;0.30;82.50;;;;;;4994055;28;20026;-75
2023/02/28 03:31:59;;;;;;;22.95;14.23;;;0.30;82.50;;;;;;4996305;28;20046;-75
2023/02/28 03:34:36;;;;;;;20.33;14.82;;;0.30;82.60;;;;;;4994448;28;20527;-76
2023/02/28 03:37:11;;;;;;;19.98;14.40;;;0.30;82.80;;;;;;4996572;28;20584;-75
2023/02/28 03:39:39;;;;;;;26.02;15.30;;;0.30;82.80;;;;;;4996254;28;20027;-74
2023/02/28 03:42:33;;;;;;;20.92;14.45;;;0.30;82.90;;;;;;4995736;28;20046;-75
2023/02/28 03:45:08;;;;;;;22.65;15.18;;;0.30;82.80;;;;;;4990491;28;20048;-75
2023/02/28 03:47:37;;;;;;;21.15;15.05;;;0.30;83.00;;;;;;4999399;28;20660;-75
2023/02/28 03:50:14;;;;;;;19.08;13.35;;;0.40;83.10;;;;;;5010964;28;20019;-74
2023/02/28 03:52:47;;;;;;;20.00;13.65;;;0.40;83.10;;;;;;5006751;28;20394;-74
2023/02/28 03:55:15;;;;;;;18.33;13.25;;;0.40;83.00;;;;;;4997719;28;20399;-74
2023/02/28 03:57:53;;;;;;;20.10;12.95;;;0.40;82.90;;;;;;4996307;28;20042;-75
2023/02/28 04:00:28;;;;;;;19.80;14.38;;;0.40;83.00;;;;;;4995303;28;20025;-75
2023/02/28 04:02:54;;;;;;;19.80;13.82;;;0.40;83.20;;;;;;4995823;28;20034;-74
2023/02/28 04:05:20;;;;;;;20.42;15.00;;;0.40;83.30;;;;;;4993309;28;20398;-74
2023/02/28 04:07:46;;;;;;;23.70;14.27;;;0.40;83.50;;;;;;4993473;28;20418;-76
2023/02/28 04:10:13;;;;;;;20.42;14.70;;;0.40;83.50;;;;;;4997832;28;20030;-75
2023/02/28 04:12:39;;;;;;;22.02;14.20;;;0.40;83.50;;;;;;4998175;28;20046;-76
2023/02/28 04:15:05;;;;;;;22.25;14.32;;;0.40;83.70;;;;;;4995539;28;20125;-77
2023/02/28 04:17:31;;;;;;;18.02;13.50;;;0.50;83.70;;;;;;5006736;28;20128;-76
2023/02/28 04:19:57;;;;;;;21.55;13.50;;;0.50;83.80;;;;;;4992975;28;20354;-76
2023/02/28 04:22:26;;;;;;;17.95;13.68;;;0.60;83.80;;;;;;5002487;28;20033;-76
2023/02/28 04:24:53;;;;;;;21.70;14.43;;;0.60;83.60;;;;;;4998138;28;20056;-76
2023/02/28 04:27:19;;;;;;;19.77;13.45;;;0.60;83.50;;;;;;5003771;28;20050;-76
2023/02/28 04:29:45;;;;;;;20.52;13.68;;;0.60;83.50;;;;;;5004735;28;20022;-76
2023/02/28 04:32:11;;;;;;;19.40;14.05;;;0.60;83.60;;;;;;5001947;28;20045;-76
2023/02/28 04:34:36;;;;;;;19.25;14.45;;;0.60;83.70;;;;;;5001069;28;20093;-74
2023/02/28 04:37:04;;;;;;;19.15;14.10;;;0.60;83.90;;;;;;5001572;28;20062;-75
2023/02/28 04:39:29;;;;;;;19.45;14.18;;;0.60;83.90;;;;;;4992212;28;20026;-75
2023/02/28 04:41:56;;;;;;;23.13;14.65;;;0.70;84.00;;;;;;4999507;28;20026;-75
2023/02/28 04:44:22;;;;;;;24.65;13.63;;;0.70;84.00;;;;;;5004083;28;20077;-75
2023/02/28 04:46:50;;;;;;;20.08;14.05;;;0.70;84.00;;;;;;4999673;28;20714;-74
2023/02/28 04:49:16;;;;;;;19.73;13.80;;;0.80;84.10;;;;;;4993554;28;20049;-73
2023/02/28 04:51:42;;;;;;;21.63;14.38;;;0.80;84.20;;;;;;5006452;28;20375;-75
2023/02/28 04:54:08;;;;;;;23.55;14.70;;;0.80;84.10;;;;;;4995085;28;20097;-76
2023/02/28 04:56:33;;;;;;;20.23;13.60;;;0.90;84.10;;;;;;5001881;28;20574;-76
2023/02/28 04:58:59;;;;;;;22.58;14.10;;;0.90;84.00;;;;;;4997962;28;20022;-76
2023/02/28 05:01:29;;;;;;;20.15;13.32;;;0.90;83.90;;;;;;5000243;28;20035;-75
2023/02/28 05:03:56;;;;;;;19.38;13.40;;;1.00;83.90;;;;;;5012707;28;20136;-76
2023/02/28 05:06:24;;;;;;;21.20;13.50;;;1.00;83.80;;;;;;4995327;28;20031;-76
2023/02/28 05:08:50;;;;;;;22.00;14.20;;;1.10;83.70;;;;;;5003999;28;20026;-75
2023/02/28 05:11:21;;;;;;;20.67;14.40;;;1.10;83.60;;;;;;4999731;28;20038;-75
2023/02/28 05:13:48;;;;;;;23.08;14.25;;;1.10;83.60;;;;;;5003130;28;20030;-76
2023/02/28 05:16:14;;;;;;;18.15;13.23;;;1.20;83.60;;;;;;4998292;28;20375;-76
2023/02/28 05:18:40;;;;;;;20.88;13.85;;;1.20;83.40;;;;;;5005145;28;20037;-75
2023/02/28 05:21:17;;;;;;;17.73;13.05;;;1.20;83.40;;;;;;5005031;28;20402;-75
2023/02/28 05:23:42;;;;;;;17.80;13.52;;;1.20;83.40;;;;;;5004908;28;20462;-75
2023/02/28 05:26:08;;;;;;;20.10;13.70;;;1.20;83.40;;;;;;5006136;28;20472;-76
2023/02/28 05:28:33;;;;;;;18.05;13.80;;;1.30;83.30;;;;;;5006504;28;20032;-75
2023/02/28 05:30:59;;;;;;;18.83;13.55;;;1.20;83.30;;;;;;5000733;28;20038;-75
2023/02/28 05:33:25;;;;;;;21.55;13.90;;;1.20;83.40;;;;;;5005766;28;20026;-75
2023/02/28 05:35:50;;;;;;;21.05;13.10;;;1.30;83.40;;;;;;5001600;28;20045;-74
2023/02/28 05:38:17;;;;;;;20.05;13.18;;;1.30;83.50;;;;;;5000848;28;20030;-74
2023/02/28 05:40:43;;;;;;;20.27;13.60;;;1.40;83.30;;;;;;5004492;28;20040;-75
2023/02/28 05:43:11;;;;;;;17.83;12.43;;;1.30;83.30;;;;;;5003515;28;20030;-75
2023/02/28 05:45:37;;;;;;;23.20;14.15;;;1.40;83.40;;;;;;4994362;28;20022;-76
2023/02/28 05:48:03;;;;;;;20.38;13.50;;;1.50;83.20;;;;;;5003852;28;20467;-76
2023/02/28 05:50:28;;;;;;;19.67;13.40;;;1.50;83.20;;;;;;4999368;28;20034;-76
2023/02/28 05:52:54;;;;;;;19.60;13.85;;;1.50;83.00;;;;;;5002251;28;20520;-76
2023/02/28 05:55:20;;;;;;;20.77;13.50;;;1.50;83.00;;;;;;5002424;28;20510;-75
2023/02/28 05:57:45;;;;;;;17.30;14.10;;;1.50;83.10;;;;;;4997940;28;20044;-75
2023/02/28 06:00:12;;;;;;;20.45;13.00;;;1.50;83.20;;;;;;5002170;28;20044;-74
2023/02/28 06:02:40;;;;;;;18.35;13.20;;;1.60;83.20;;;;;;4994563;28;20029;-74
2023/02/28 06:05:12;;;;;;;20.50;15.10;;;1.60;83.20;;;;;;4996842;28;20014;-74
2023/02/28 06:07:38;;;;;;;22.08;14.77;;;1.60;83.10;;;;;;4985319;28;20042;-75
2023/02/28 06:10:04;;;;;;;18.73;14.00;;;1.60;83.00;;;;;;4969467;28;20029;-75
2023/02/28 06:12:30;;;;;;;19.58;14.15;;;1.60;83.00;;;;;;4977813;28;20049;-76
2023/02/28 06:14:56;;;;;;;21.20;14.18;;;1.60;83.00;;;;;;4976166;28;20034;-75
2023/02/28 06:17:21;;;;;;;18.77;13.18;;;1.60;83.00;;;;;;4980490;28;20038;-75
2023/02/28 06:19:47;;;;;;;22.00;14.27;;;1.70;83.10;;;;;;4980081;28;20208;-75
2023/02/28 06:22:13;;;;;;;21.98;13.95;;;1.60;83.10;;;;;;4975702;28;20037;-75
2023/02/28 06:24:39;;;;;;;22.48;13.48;;;1.70;83.10;;;;;;4971911;28;20023;-75
2023/02/28 06:27:05;;;;;;;19.98;14.20;;;1.70;83.10;;;;;;4987813;28;20050;-75
2023/02/28 06:29:39;;;;;;;19.77;13.88;;;1.80;83.10;;;;;;4992024;28;20041;-74
2023/02/28 06:32:05;;;;;;;19.98;14.02;;;1.80;83.10;;;;;;5002530;28;20037;-75
2023/02/28 06:34:31;;;;;;;21.88;14.50;;;1.80;83.20;;;;;;4994129;28;20026;-75
2023/02/28 06:37:01;;;;;;;19.80;13.73;;;1.80;83.40;;;;;;4998118;28;20050;-75
2023/02/28 06:39:28;;;;;;;24.15;15.02;;;1.90;83.40;;;;;;5001726;28;20022;-76
2023/02/28 06:41:53;;;;;;;24.63;15.18;;;1.90;83.40;;;;;;4998220;28;20453;-75
2023/02/28 06:44:19;;;;;;;21.85;14.75;;;1.90;83.40;;;;;;5000321;28;20109;-75
2023/02/28 06:46:46;;;;;;;20.83;15.13;;;1.90;83.40;;;;;;4997302;28;20041;-76
2023/02/28 06:49:11;;;;;;;21.13;14.57;;;1.90;83.30;;;;;;5000426;28;20034;-75
2023/02/28 06:51:41;;;;;;;22.38;15.38;;;2.00;83.20;;;;;;4993746;28;20029;-75
2023/02/28 06:54:10;;;;;;;20.52;14.85;;;2.00;83.10;;;;;;5001809;28;20105;-75
2023/02/28 06:56:36;;;;;;;19.48;14.45;;;2.10;83.00;;;;;;5002000;28;20530;-76
2023/02/28 06:59:02;;;;;;;23.95;15.02;;;2.10;83.10;;;;;;4992393;28;20027;-75
2023/02/28 07:01:27;;;;;;;22.83;14.38;;;2.10;83.00;;;;;;4999415;28;20478;-75
2023/02/28 07:03:54;;;;;;;22.20;14.38;;;2.10;82.80;;;;;;4998915;28;20068;-75
2023/02/28 07:06:23;;;;;;;24.35;16.40;;;2.10;82.80;;;;;;4990996;28;20061;-75
2023/02/28 07:08:51;;;;;;;23.60;15.32;;;2.20;82.70;;;;;;4975160;28;20121;-74
2023/02/28 07:11:17;;;;;;;23.77;17.70;;;2.20;82.50;;;;;;4987758;28;20096;-75
2023/02/28 07:13:43;;;;;;;20.55;14.68;;;2.30;82.30;;;;;;4994817;28;20029;-74
2023/02/28 07:16:10;;;;;;;20.95;15.10;;;2.40;81.90;;;;;;5012175;28;20041;-75
2023/02/28 07:18:37;;;;;;;23.45;14.60;;;2.40;81.70;;;;;;4991817;28;20445;-76
2023/02/28 07:21:07;;;;;;;21.90;15.43;;;2.40;81.50;;;;;;4994993;28;20035;-74
2023/02/28 07:23:33;;;;;;;29.60;17.63;;;2.40;81.30;;;;;;5007781;28;20088;-74
2023/02/28 07:25:59;;;;;;;30.33;15.65;;;2.50;81.30;;;;;;4993284;28;20759;-75
2023/02/28 07:28:25;;;;;;;21.13;14.32;;;2.50;81.10;;;;;;5003044;28;20479;-76
2023/02/28 07:30:51;;;;;;;21.67;14.60;;;2.60;80.90;;;;;;5001048;28;20045;-75
2023/02/28 07:33:17;;;;;;;20.30;12.98;;;2.50;80.90;;;;;;4990030;28;20038;-76
2023/02/28 07:35:42;;;;;;;18.95;14.65;;;2.60;80.60;;;;;;4990756;28;20089;-77
2023/02/28 07:38:08;;;;;;;19.33;13.63;;;2.60;80.00;;;;;;4996734;28;20675;-75
2023/02/28 07:40:35;;;;;;;23.55;14.80;;;2.60;79.50;;;;;;4995437;28;20061;-75
2023/02/28 07:43:01;;;;;;;18.70;14.05;;;2.60;79.30;;;;;;4995415;28;20033;-74
2023/02/28 07:45:32;;;;;;;27.38;14.00;;;2.70;79.00;;;;;;4998846;28;20022;-74
2023/02/28 07:47:57;;;;;;;46.00;23.40;;;2.80;78.50;;;;;;4994404;28;20057;-72
2023/02/28 07:50:23;;;;;;;17.60;10.95;;;2.90;78.00;;;;;;4994234;28;20058;-73
2023/02/28 07:52:49;;;;;;;19.15;10.38;;;2.90;76.30;;;;;;4997556;28;20144;-73
2023/02/28 07:55:16;;;;;;;40.00;17.08;;;3.00;75.80;;;;;;4993684;28;20388;-73
2023/02/28 07:57:42;;;;;;;19.40;12.77;;;3.10;75.30;;;;;;4990813;28;20049;-73
2023/02/28 08:00:10;;;;;;;18.05;11.85;;;3.10;75.30;;;;;;4992629;28;20030;-74
2023/02/28 08:02:36;;;;;;;19.08;12.85;;;3.10;75.20;;;;;;5001191;28;20038;-73
2023/02/28 08:05:02;;;;;;;15.20;11.45;;;3.20;75.10;;;;;;4993736;28;20042;-74
2023/02/28 08:07:28;;;;;;;14.70;11.52;;;3.30;74.40;;;;;;4995936;28;20038;-74
2023/02/28 08:09:53;;;;;;;16.10;10.15;;;3.30;74.20;;;;;;4996998;28;20088;-74
2023/02/28 08:12:19;;;;;;;14.93;9.23;;;3.30;73.90;;;;;;4997949;28;20034;-75
2023/02/28 08:14:45;;;;;;;15.27;9.40;;;3.40;73.20;;;;;;4995853;28;20034;-75
2023/02/28 08:17:11;;;;;;;14.82;9.95;;;3.50;73.40;;;;;;4999749;28;20401;-75
2023/02/28 08:19:36;;;;;;;15.02;10.15;;;3.50;73.30;;;;;;4996325;28;20533;-74
2023/02/28 08:22:02;;;;;;;15.52;9.70;;;3.50;72.80;;;;;;4998547;28;20859;-75
2023/02/28 08:24:28;;;;;;;22.60;12.13;;;3.50;73.00;;;;;;5000538;28;20025;-74
2023/02/28 08:26:54;;;;;;;15.77;9.02;;;3.50;72.60;;;;;;4996705;28;20506;-75
2023/02/28 08:29:20;;;;;;;14.60;7.65;;;3.50;72.20;;;;;;5003819;28;20036;-74
2023/02/28 08:31:45;;;;;;;12.23;7.57;;;3.50;72.30;;;;;;4990148;28;20042;-74
2023/02/28 08:34:13;;;;;;;12.43;7.90;;;3.60;71.60;;;;;;4995431;28;20116;-73
2023/02/28 08:36:39;;;;;;;13.23;8.40;;;3.50;71.10;;;;;;4990803;28;20373;-74
2023/02/28 08:39:05;;;;;;;23.67;9.52;;;3.50;70.50;;;;;;4997094;28;20106;-75
2023/02/28 08:41:32;;;;;;;13.57;8.07;;;3.60;70.90;;;;;;4992392;28;20049;-74
2023/02/28 08:43:57;;;;;;;14.57;6.60;;;3.70;70.00;;;;;;4999088;28;20027;-73
2023/02/28 08:46:24;;;;;;;13.70;8.02;;;3.60;69.80;;;;;;4997230;28;20034;-73
2023/02/28 08:48:54;;;;;;;11.23;7.00;;;3.70;70.50;;;;;;4996404;28;20041;-74
2023/02/28 08:51:26;;;;;;;10.70;7.68;;;3.70;70.20;;;;;;5006147;28;20041;-73
2023/02/28 08:53:58;;;;;;;10.70;7.13;;;3.70;68.90;;;;;;4988591;28;20026;-74
2023/02/28 08:56:23;;;;;;;18.00;8.93;;;3.80;69.40;;;;;;5003121;28;20062;-78
2023/02/28 08:58:50;;;;;;;13.38;7.80;;;3.90;69.90;;;;;;5003358;28;20121;-76
2023/02/28 09:01:21;;;;;;;13.25;7.43;;;3.90;68.50;;;;;;5004713;28;20493;-76
2023/02/28 09:03:48;;;;;;;10.07;6.43;;;3.90;67.50;;;;;;5002410;28;20654;-78
2023/02/28 09:06:16;;;;;;;11.52;7.40;;;3.80;66.80;;;;;;5006904;28;20128;-80
2023/02/28 09:08:42;;;;;;;10.48;6.72;;;3.80;67.60;;;;;;5001396;28;20479;-80
2023/02/28 09:11:09;;;;;;;10.88;8.05;;;3.90;67.90;;;;;;5000364;28;20029;-77
2023/02/28 09:13:35;;;;;;;11.07;7.75;;;3.80;68.20;;;;;;5000121;28;20025;-76
2023/02/28 09:16:02;;;;;;;10.75;7.13;;;3.90;68.60;;;;;;4999089;28;20030;-79
2023/02/28 09:18:29;;;;;;;10.55;7.15;;;3.90;67.40;;;;;;4995268;28;20026;-80
2023/02/28 09:20:55;;;;;;;14.10;7.40;;;4.00;67.40;;;;;;5001483;28;20565;-78
2023/02/28 09:23:21;;;;;;;13.80;7.90;;;4.10;67.70;;;;;;4999519;28;20117;-78
2023/02/28 09:25:52;;;;;;;12.02;7.13;;;4.10;67.50;;;;;;4998344;28;20123;-79
2023/02/28 09:28:18;;;;;;;12.32;7.30;;;4.00;66.90;;;;;;5002387;28;20026;-78
2023/02/28 09:30:49;;;;;;;12.70;7.32;;;4.00;67.20;;;;;;4997267;28;20029;-80
2023/02/28 09:33:16;;;;;;;15.38;7.50;;;4.00;66.70;;;;;;4998964;28;20663;-74
2023/02/28 09:35:42;;;;;;;9.95;6.07;;;4.00;65.90;;;;;;5001445;28;20489;-73
2023/02/28 09:38:09;;;;;;;10.10;5.85;;;4.00;65.20;;;;;;5002360;28;20026;-73
2023/02/28 09:40:46;;;;;;;10.18;5.75;;;4.10;64.10;;;;;;4991521;28;20041;-74
2023/02/28 09:43:17;;;;;;;9.32;4.90;;;4.10;63.10;;;;;;4997527;28;20053;-76
2023/02/28 09:45:49;;;;;;;10.55;5.40;;;4.10;61.70;;;;;;5001516;28;20136;-75
2023/02/28 09:48:20;;;;;;;7.20;4.82;;;4.10;60.20;;;;;;5000898;28;20030;-76
2023/02/28 09:51:00;;;;;;;8.20;4.50;;;4.10;60.60;;;;;;5001572;28;20022;-75
2023/02/28 09:53:33;;;;;;;8.85;4.95;;;4.20;59.40;;;;;;4995440;28;20599;-77
2023/02/28 09:56:04;;;;;;;9.00;4.57;;;4.20;59.70;;;;;;5002250;28;20054;-77
2023/02/28 09:58:45;;;;;;;8.30;4.85;;;4.20;59.30;;;;;;5003661;28;20026;-74
2023/02/28 10:01:32;;;;;;;10.23;5.22;;;4.10;58.40;;;;;;5004893;28;20053;-74
2023/02/28 10:04:16;;;;;;;8.77;5.18;;;4.10;59.40;;;;;;5004752;28;20115;-75
2023/02/28 10:06:49;;;;;;;8.30;5.22;;;4.10;59.60;;;;;;5001943;28;20046;-75
2023/02/28 10:09:24;;;;;;;8.00;4.65;;;4.20;59.00;;;;;;5001053;28;20104;-75
2023/02/28 10:11:56;;;;;;;10.55;5.43;;;4.30;59.50;;;;;;5002155;28;20346;-74
2023/02/28 10:14:25;;;;;;;7.43;4.70;;;4.30;58.80;;;;;;4999442;28;20029;-77
2023/02/28 10:16:59;;;;;;;8.38;4.57;;;4.30;57.20;;;;;;4996070;28;20072;-75
2023/02/28 10:19:40;;;;;;;9.02;5.20;;;4.10;56.10;;;;;;5004760;28;20026;-75
2023/02/28 10:22:19;;;;;;;8.18;5.00;;;4.10;56.40;;;;;;5001922;28;20041;-74
2023/02/28 10:24:53;;;;;;;10.73;5.30;;;4.00;56.60;;;;;;5002466;28;20026;-74
2023/02/28 10:27:24;;;;;;;9.68;5.50;;;3.80;56.30;;;;;;4986121;28;20363;-75
2023/02/28 10:29:53;;;;;;;10.30;5.45;;;3.80;56.00;;;;;;4981543;28;20054;-75
2023/02/28 10:32:39;;;;;;;7.00;4.70;;;4.00;56.80;;;;;;4991697;28;20030;-75
2023/02/28 10:35:11;;;;;;;8.15;5.05;;;4.20;56.90;;;;;;5002704;28;20327;-74
2023/02/28 10:37:42;;;;;;;10.73;6.03;;;4.30;56.10;;;;;;5007235;28;20061;-75
2023/02/28 10:40:17;;;;;;;11.50;5.80;;;4.40;55.90;;;;;;5002537;28;20033;-76
2023/02/28 10:42:54;;;;;;;;;;;4.40;55.50;;;;;;4999700;28;20042;-74
2023/02/28 10:45:20;;;;;;;9.73;4.65;;;4.40;56.20;;;;;;5001788;28;19913;-76
2023/02/28 10:47:56;;;;;;;8.32;4.43;;;4.60;55.70;;;;;;4997540;28;20042;-75
2023/02/28 10:50:37;;;;;;;7.82;4.72;;;4.70;53.70;;;;;;4999936;28;20033;-76
2023/02/28 10:53:24;;;;;;;8.25;4.82;;;4.60;53.50;;;;;;4999678;28;20042;-75
2023/02/28 10:56:03;;;;;;;8.50;5.25;;;4.60;54.00;;;;;;5002680;28;20052;-75
2023/02/28 10:58:51;;;;;;;8.30;5.40;;;4.70;53.70;;;;;;4999104;28;20030;-75
2023/02/28 11:01:34;;;;;;;7.55;4.70;;;4.90;53.70;;;;;;5008402;28;20038;-73
2023/02/28 11:04:00;;;;;;;8.35;5.03;;;4.60;53.60;;;;;;4981742;28;20562;-74
2023/02/28 11:06:30;;;;;;;11.25;5.63;;;4.80;53.90;;;;;;4993205;28;20202;-74
2023/02/28 11:08:59;;;;;;;10.43;5.03;;;5.00;53.20;;;;;;5002438;28;20026;-74
2023/02/28 11:11:28;;;;;;;9.65;5.45;;;4.70;52.70;;;;;;4997860;28;20092;-74
2023/02/28 11:13:57;;;;;;;10.50;5.15;;;4.70;53.00;;;;;;4987194;28;20030;-75
2023/02/28 11:16:36;;;;;;;10.18;5.43;;;4.80;52.40;;;;;;4989384;28;20049;-74
2023/02/28 11:19:15;;;;;;;8.80;5.10;;;4.90;52.70;;;;;;4986454;28;20041;-75
2023/02/28 11:21:54;;;;;;;8.52;5.47;;;4.90;53.30;;;;;;4990518;28;20027;-75
2023/02/28 11:24:28;;;;;;;8.43;4.97;;;5.10;53.50;;;;;;4992799;28;20132;-72
2023/02/28 11:26:54;;;;;;;9.38;5.80;;;5.50;52.10;;;;;;4987240;28;20045;-74
2023/02/28 11:29:30;;;;;;;9.18;4.50;;;5.50;50.70;;;;;;4988691;28;20026;-74
2023/02/28 11:32:08;;;;;;;10.00;5.30;;;5.50;51.90;;;;;;4988222;28;20041;-74
2023/02/28 11:34:36;;;;;;;6.60;3.97;;;5.90;52.00;;;;;;4994656;28;20433;-74
2023/02/28 11:37:06;;;;;;;8.13;5.10;;;6.30;49.40;;;;;;4993361;28;20041;-73
2023/02/28 11:39:33;;;;;;;8.10;4.60;;;6.20;48.70;;;;;;4988266;28;20029;-74
2023/02/28 11:42:17;;;;;;;10.50;5.53;;;6.40;49.50;;;;;;4990138;28;20038;-78
2023/02/28 11:45:12;;;;;;;8.30;5.15;;;6.10;49.20;;;;;;5008052;28;20029;-79
2023/02/28 11:48:05;;;;;;;9.60;4.47;;;6.20;49.80;;;;;;4991811;28;20046;-79
2023/02/28 11:50:51;;;;;;;13.60;5.93;;;6.60;48.40;;;;;;4990534;28;20080;-78
2023/02/28 11:53:46;;;;;;;8.80;5.38;;;6.70;48.00;;;;;;5003529;28;20402;-78
2023/02/28 11:56:21;;;;;;;;;;;6.60;47.90;;;;;;4987623;28;20049;-75
2023/02/28 11:59:13;;;;;;;8.85;4.63;;;6.50;47.50;;;;;;4991493;28;19919;-78
2023/02/28 12:02:02;;;;;;;8.02;4.95;;;6.50;48.50;;;;;;4989123;28;20610;-77
2023/02/28 12:04:36;;;;;;;6.38;3.90;;;6.60;46.90;;;;;;4994079;28;20387;-78
2023/02/28 12:07:02;;;;;;;;;;;6.60;47.30;;;;;;4994739;28;20132;-76
2023/02/28 12:10:09;;;;;;;8.10;4.18;;;6.90;47.10;;;;;;4987830;28;19918;-78
2023/02/28 12:12:41;;;;;;;9.15;5.28;;;7.10;46.80;;;;;;4991198;28;20133;-77
2023/02/28 12:15:26;;;;;;;7.88;4.85;;;6.60;45.90;;;;;;4990326;28;20467;-76
2023/02/28 12:18:04;;;;;;;6.97;4.30;;;6.50;47.50;;;;;;4989736;28;20042;-79
2023/02/28 12:20:44;;;;;;;8.15;5.22;;;6.80;47.70;;;;;;4986791;28;20052;-79
2023/02/28 12:23:33;;;;;;;10.07;4.63;;;7.20;46.90;;;;;;4989011;28;20095;-77
2023/02/28 12:26:27;;;;;;;9.23;4.25;;;6.70;46.10;;;;;;4990867;28;20080;-76
2023/02/28 12:29:17;;;;;;;6.30;4.30;;;7.00;45.40;;;;;;4988804;28;20044;-77
2023/02/28 12:31:58;;;;;;;8.98;4.70;;;7.10;45.10;;;;;;4988176;28;20498;-77
2023/02/28 12:34:31;;;;;;;7.68;4.15;;;7.20;45.50;;;;;;4996898;28;20026;-79
2023/02/28 12:37:01;;;;;;;6.20;3.85;;;7.30;44.50;;;;;;5000314;28;20049;-79
2023/02/28 12:39:35;;;;;;;6.80;3.67;;;7.00;43.40;;;;;;5003457;28;20030;-78
2023/02/28 12:42:14;;;;;;;6.13;3.80;;;7.00;44.00;;;;;;5001888;28;20037;-86
2023/02/28 12:44:52;;;;;;;6.03;3.97;;;7.40;43.70;;;;;;5013151;28;20030;-84
2023/02/28 12:47:18;;;;;;;5.55;3.20;;;7.50;42.80;;;;;;4998434;28;20091;-80
2023/02/28 12:49:47;;;;;;;6.45;3.85;;;7.70;42.50;;;;;;4997253;28;20471;-80
2023/02/28 12:52:17;;;;;;;7.70;4.15;;;7.50;40.60;;;;;;4997515;28;20065;-80
2023/02/28 12:55:06;;;;;;;7.35;3.75;;;7.30;42.70;;;;;;4997115;28;20033;-79
2023/02/28 12:57:45;;;;;;;6.22;3.50;;;7.30;41.40;;;;;;5006446;28;20030;-82
2023/02/28 13:00:18;;;;;;;4.97;3.28;;;7.30;41.70;;;;;;4999860;28;20042;-77